sensor_id;sensor_type;location;lat;lon;timestamp;P1;durP1;ratioP1;P2;durP2;ratioP2
55346;SDS011;41218;55.700;38.270;2023-04-25T00:04:31;15.13;;;7.93;;
55346;SDS011;41218;55.700;38.270;2023-04-25T00:09:33;11.85;;;6.70;;
55346;SDS011;41218;55.700;38.270;2023-04-25T00:14:34;15.87;;;7.93;;
55346;SDS011;41218;55.700;38.270;2023-04-25T00:24:37;14.52;;;7.30;;
55346;SDS011;41218;55.700;38.270;2023-04-25T00:29:38;14.83;;;7.53;;
55346;SDS011;41218;55.700;38.270;2023-04-25T00:34:38;14.93;;;7.70;;
55346;SDS011;41218;55.700;38.270;2023-04-25T00:39:39;16.25;;;7.88;;
55346;SDS011;41218;55.700;38.270;2023-04-25T00:44:40;15.73;;;8.20;;
55346;SDS011;41218;55.700;38.270;2023-04-25T00:49:41;14.27;;;7.45;;
55346;SDS011;41218;55.700;38.270;2023-04-25T00:54:41;14.60;;;7.80;;
55346;SDS011;41218;55.700;38.270;2023-04-25T00:59:43;14.20;;;7.70;;
55346;SDS011;41218;55.700;38.270;2023-04-25T01:04:47;11.98;;;7.40;;
55346;SDS011;41218;55.700;38.270;2023-04-25T01:09:48;14.98;;;7.80;;
55346;SDS011;41218;55.700;38.270;2023-04-25T01:14:49;13.25;;;7.55;;
55346;SDS011;41218;55.700;38.270;2023-04-25T01:19:50;14.73;;;8.00;;
55346;SDS011;41218;55.700;38.270;2023-04-25T01:24:51;13.75;;;7.35;;
55346;SDS011;41218;55.700;38.270;2023-04-25T01:29:52;13.07;;;7.80;;
55346;SDS011;41218;55.700;38.270;2023-04-25T01:34:54;16.15;;;7.57;;
55346;SDS011;41218;55.700;38.270;2023-04-25T01:39:55;18.53;;;7.93;;
55346;SDS011;41218;55.700;38.270;2023-04-25T01:44:55;14.03;;;7.97;;
55346;SDS011;41218;55.700;38.270;2023-04-25T01:49:56;17.67;;;7.23;;
55346;SDS011;41218;55.700;38.270;2023-04-25T01:54:57;13.03;;;7.57;;
55346;SDS011;41218;55.700;38.270;2023-04-25T02:00:00;12.68;;;7.20;;
55346;SDS011;41218;55.700;38.270;2023-04-25T02:05:03;15.43;;;7.70;;
55346;SDS011;41218;55.700;38.270;2023-04-25T02:10:04;14.38;;;7.35;;
55346;SDS011;41218;55.700;38.270;2023-04-25T02:15:05;12.50;;;6.95;;
55346;SDS011;41218;55.700;38.270;2023-04-25T02:20:06;11.93;;;6.93;;
55346;SDS011;41218;55.700;38.270;2023-04-25T02:25:07;13.25;;;6.80;;
55346;SDS011;41218;55.700;38.270;2023-04-25T02:30:09;13.02;;;7.57;;
55346;SDS011;41218;55.700;38.270;2023-04-25T02:35:09;11.90;;;6.97;;
55346;SDS011;41218;55.700;38.270;2023-04-25T02:40:10;13.00;;;6.83;;
55346;SDS011;41218;55.700;38.270;2023-04-25T02:45:11;13.57;;;7.03;;
55346;SDS011;41218;55.700;38.270;2023-04-25T02:50:11;15.97;;;7.20;;
55346;SDS011;41218;55.700;38.270;2023-04-25T02:55:12;13.83;;;7.17;;
55346;SDS011;41218;55.700;38.270;2023-04-25T03:05:14;10.10;;;6.27;;
55346;SDS011;41218;55.700;38.270;2023-04-25T03:10:14;13.10;;;7.03;;
55346;SDS011;41218;55.700;38.270;2023-04-25T03:15:15;10.03;;;6.27;;
55346;SDS011;41218;55.700;38.270;2023-04-25T03:20:16;11.13;;;6.57;;
55346;SDS011;41218;55.700;38.270;2023-04-25T03:25:17;16.53;;;7.37;;
55346;SDS011;41218;55.700;38.270;2023-04-25T03:30:17;10.60;;;6.60;;
55346;SDS011;41218;55.700;38.270;2023-04-25T03:35:18;12.43;;;6.50;;
55346;SDS011;41218;55.700;38.270;2023-04-25T03:40:18;10.93;;;6.20;;
55346;SDS011;41218;55.700;38.270;2023-04-25T03:45:19;15.90;;;6.80;;
55346;SDS011;41218;55.700;38.270;2023-04-25T03:50:20;12.00;;;6.53;;
55346;SDS011;41218;55.700;38.270;2023-04-25T03:55:20;11.03;;;6.70;;
55346;SDS011;41218;55.700;38.270;2023-04-25T04:00:21;11.77;;;6.40;;
55346;SDS011;41218;55.700;38.270;2023-04-25T04:05:21;13.60;;;6.23;;
55346;SDS011;41218;55.700;38.270;2023-04-25T04:10:22;14.07;;;6.50;;
55346;SDS011;41218;55.700;38.270;2023-04-25T04:15:23;18.60;;;6.47;;
55346;SDS011;41218;55.700;38.270;2023-04-25T04:20:23;10.87;;;6.10;;
55346;SDS011;41218;55.700;38.270;2023-04-25T04:25:24;14.13;;;6.50;;
55346;SDS011;41218;55.700;38.270;2023-04-25T04:30:24;13.75;;;6.13;;
55346;SDS011;41218;55.700;38.270;2023-04-25T04:35:25;10.87;;;5.83;;
55346;SDS011;41218;55.700;38.270;2023-04-25T04:40:25;12.80;;;5.93;;
55346;SDS011;41218;55.700;38.270;2023-04-25T04:45:26;11.27;;;5.80;;
55346;SDS011;41218;55.700;38.270;2023-04-25T04:50:27;10.50;;;5.70;;
55346;SDS011;41218;55.700;38.270;2023-04-25T04:55:28;12.50;;;5.83;;
55346;SDS011;41218;55.700;38.270;2023-04-25T05:00:28;11.83;;;5.60;;
55346;SDS011;41218;55.700;38.270;2023-04-25T05:05:29;13.13;;;6.30;;
55346;SDS011;41218;55.700;38.270;2023-04-25T05:10:30;10.90;;;5.27;;
55346;SDS011;41218;55.700;38.270;2023-04-25T05:15:30;10.90;;;6.10;;
55346;SDS011;41218;55.700;38.270;2023-04-25T05:20:31;9.67;;;5.83;;
55346;SDS011;41218;55.700;38.270;2023-04-25T05:25:32;8.10;;;5.25;;
55346;SDS011;41218;55.700;38.270;2023-04-25T05:30:33;14.53;;;5.73;;
55346;SDS011;41218;55.700;38.270;2023-04-25T05:35:34;8.75;;;5.20;;
55346;SDS011;41218;55.700;38.270;2023-04-25T05:40:35;9.87;;;5.00;;
55346;SDS011;41218;55.700;38.270;2023-04-25T05:45:35;7.32;;;4.57;;
55346;SDS011;41218;55.700;38.270;2023-04-25T05:50:36;12.20;;;5.20;;
55346;SDS011;41218;55.700;38.270;2023-04-25T05:55:36;6.03;;;4.23;;
55346;SDS011;41218;55.700;38.270;2023-04-25T06:00:38;9.68;;;4.45;;
55346;SDS011;41218;55.700;38.270;2023-04-25T06:05:39;12.20;;;4.43;;
55346;SDS011;41218;55.700;38.270;2023-04-25T06:10:39;7.57;;;4.10;;
55346;SDS011;41218;55.700;38.270;2023-04-25T06:15:40;8.47;;;3.47;;
55346;SDS011;41218;55.700;38.270;2023-04-25T06:20:40;4.50;;;3.23;;
55346;SDS011;41218;55.700;38.270;2023-04-25T06:25:41;6.50;;;3.27;;
55346;SDS011;41218;55.700;38.270;2023-04-25T06:30:41;5.30;;;3.17;;
55346;SDS011;41218;55.700;38.270;2023-04-25T06:35:42;4.33;;;3.13;;
55346;SDS011;41218;55.700;38.270;2023-04-25T06:40:42;4.07;;;3.00;;
55346;SDS011;41218;55.700;38.270;2023-04-25T06:45:43;5.67;;;2.77;;
55346;SDS011;41218;55.700;38.270;2023-04-25T06:50:43;3.95;;;2.55;;
55346;SDS011;41218;55.700;38.270;2023-04-25T06:55:44;3.65;;;2.40;;
55346;SDS011;41218;55.700;38.270;2023-04-25T07:00:45;4.15;;;2.35;;
55346;SDS011;41218;55.700;38.270;2023-04-25T07:05:45;3.55;;;2.60;;
55346;SDS011;41218;55.700;38.270;2023-04-25T07:10:46;4.10;;;2.73;;
55346;SDS011;41218;55.700;38.270;2023-04-25T07:15:47;6.10;;;3.05;;
55346;SDS011;41218;55.700;38.270;2023-04-25T07:20:48;3.50;;;2.70;;
55346;SDS011;41218;55.700;38.270;2023-04-25T07:25:49;5.00;;;2.75;;
55346;SDS011;41218;55.700;38.270;2023-04-25T07:30:49;7.97;;;3.42;;
55346;SDS011;41218;55.700;38.270;2023-04-25T07:35:50;7.15;;;3.75;;
55346;SDS011;41218;55.700;38.270;2023-04-25T07:40:50;8.05;;;4.70;;
55346;SDS011;41218;55.700;38.270;2023-04-25T07:45:51;9.55;;;2.78;;
55346;SDS011;41218;55.700;38.270;2023-04-25T07:55:52;3.30;;;2.70;;
55346;SDS011;41218;55.700;38.270;2023-04-25T08:05:53;3.83;;;2.80;;
55346;SDS011;41218;55.700;38.270;2023-04-25T08:15:54;2.60;;;2.20;;
55346;SDS011;41218;55.700;38.270;2023-04-25T08:25:55;3.40;;;2.47;;
55346;SDS011;41218;55.700;38.270;2023-04-25T08:35:55;5.80;;;2.27;;
55346;SDS011;41218;55.700;38.270;2023-04-25T08:45:58;6.03;;;2.57;;
55346;SDS011;41218;55.700;38.270;2023-04-25T08:51:01;3.35;;;2.53;;
55346;SDS011;41218;55.700;38.270;2023-04-25T08:56:03;2.75;;;2.17;;
55346;SDS011;41218;55.700;38.270;2023-04-25T09:01:06;3.33;;;2.45;;
55346;SDS011;41218;55.700;38.270;2023-04-25T09:11:07;4.30;;;3.27;;
55346;SDS011;41218;55.700;38.270;2023-04-25T09:21:08;3.70;;;2.30;;
55346;SDS011;41218;55.700;38.270;2023-04-25T09:26:16;4.43;;;2.10;;
55346;SDS011;41218;55.700;38.270;2023-04-25T09:31:24;3.90;;;2.63;;
55346;SDS011;41218;55.700;38.270;2023-04-25T09:36:26;4.85;;;2.80;;
55346;SDS011;41218;55.700;38.270;2023-04-25T09:41:27;3.72;;;2.55;;
55346;SDS011;41218;55.700;38.270;2023-04-25T09:46:32;4.82;;;3.00;;
55346;SDS011;41218;55.700;38.270;2023-04-25T09:51:35;7.13;;;3.15;;
55346;SDS011;41218;55.700;38.270;2023-04-25T09:56:36;7.57;;;3.22;;
55346;SDS011;41218;55.700;38.270;2023-04-25T10:01:37;6.07;;;3.17;;
55346;SDS011;41218;55.700;38.270;2023-04-25T10:06:41;5.75;;;3.90;;
55346;SDS011;41218;55.700;38.270;2023-04-25T10:11:43;6.03;;;3.35;;
55346;SDS011;41218;55.700;38.270;2023-04-25T10:16:46;9.38;;;4.47;;
55346;SDS011;41218;55.700;38.270;2023-04-25T10:27:13;7.50;;;3.40;;
55346;SDS011;41218;55.700;38.270;2023-04-25T10:32:14;4.53;;;2.65;;
55346;SDS011;41218;55.700;38.270;2023-04-25T10:37:14;4.85;;;3.03;;
55346;SDS011;41218;55.700;38.270;2023-04-25T10:42:19;5.30;;;3.40;;
55346;SDS011;41218;55.700;38.270;2023-04-25T10:47:19;4.90;;;3.20;;
55346;SDS011;41218;55.700;38.270;2023-04-25T10:52:36;5.43;;;3.45;;
55346;SDS011;41218;55.700;38.270;2023-04-25T11:07:52;6.05;;;3.60;;
55346;SDS011;41218;55.700;38.270;2023-04-25T11:12:57;4.97;;;3.63;;
55346;SDS011;41218;55.700;38.270;2023-04-25T11:18:00;4.60;;;3.33;;
55346;SDS011;41218;55.700;38.270;2023-04-25T11:23:00;8.05;;;4.28;;
55346;SDS011;41218;55.700;38.270;2023-04-25T11:28:01;6.22;;;3.78;;
55346;SDS011;41218;55.700;38.270;2023-04-25T11:33:01;6.30;;;3.60;;
55346;SDS011;41218;55.700;38.270;2023-04-25T11:38:03;5.38;;;4.22;;
55346;SDS011;41218;55.700;38.270;2023-04-25T11:43:04;6.22;;;4.47;;
55346;SDS011;41218;55.700;38.270;2023-04-25T11:48:04;7.93;;;4.20;;
55346;SDS011;41218;55.700;38.270;2023-04-25T11:53:05;7.28;;;4.20;;
55346;SDS011;41218;55.700;38.270;2023-04-25T11:58:06;5.20;;;4.70;;
55346;SDS011;41218;55.700;38.270;2023-04-25T12:03:08;6.40;;;4.78;;
55346;SDS011;41218;55.700;38.270;2023-04-25T12:08:10;7.95;;;5.72;;
55346;SDS011;41218;55.700;38.270;2023-04-25T12:13:17;5.90;;;5.00;;
55346;SDS011;41218;55.700;38.270;2023-04-25T12:18:25;5.22;;;4.72;;
55346;SDS011;41218;55.700;38.270;2023-04-25T12:23:28;6.18;;;4.05;;
55346;SDS011;41218;55.700;38.270;2023-04-25T12:28:31;6.28;;;3.83;;
55346;SDS011;41218;55.700;38.270;2023-04-25T12:33:33;5.30;;;4.20;;
55346;SDS011;41218;55.700;38.270;2023-04-25T12:38:36;10.15;;;3.97;;
55346;SDS011;41218;55.700;38.270;2023-04-25T12:43:38;4.53;;;4.00;;
55346;SDS011;41218;55.700;38.270;2023-04-25T12:48:39;5.88;;;4.13;;
55346;SDS011;41218;55.700;38.270;2023-04-25T12:53:40;4.80;;;3.67;;
55346;SDS011;41218;55.700;38.270;2023-04-25T12:58:41;4.65;;;3.47;;
55346;SDS011;41218;55.700;38.270;2023-04-25T13:03:44;5.55;;;3.70;;
55346;SDS011;41218;55.700;38.270;2023-04-25T13:08:44;4.43;;;3.20;;
55346;SDS011;41218;55.700;38.270;2023-04-25T13:13:45;3.55;;;3.17;;
55346;SDS011;41218;55.700;38.270;2023-04-25T13:18:46;4.30;;;3.30;;
55346;SDS011;41218;55.700;38.270;2023-04-25T13:23:46;3.78;;;3.08;;
55346;SDS011;41218;55.700;38.270;2023-04-25T13:28:47;4.03;;;3.10;;
55346;SDS011;41218;55.700;38.270;2023-04-25T13:33:47;4.45;;;3.00;;
55346;SDS011;41218;55.700;38.270;2023-04-25T13:38:48;4.30;;;3.10;;
55346;SDS011;41218;55.700;38.270;2023-04-25T13:43:49;5.93;;;3.10;;
55346;SDS011;41218;55.700;38.270;2023-04-25T13:48:49;5.05;;;3.10;;
55346;SDS011;41218;55.700;38.270;2023-04-25T13:53:50;4.57;;;2.67;;
55346;SDS011;41218;55.700;38.270;2023-04-25T13:58:50;3.50;;;2.72;;
55346;SDS011;41218;55.700;38.270;2023-04-25T14:03:54;5.63;;;2.80;;
55346;SDS011;41218;55.700;38.270;2023-04-25T14:08:54;3.40;;;2.58;;
55346;SDS011;41218;55.700;38.270;2023-04-25T14:13:56;3.58;;;2.55;;
55346;SDS011;41218;55.700;38.270;2023-04-25T14:18:59;3.20;;;2.80;;
55346;SDS011;41218;55.700;38.270;2023-04-25T14:24:00;5.18;;;2.92;;
55346;SDS011;41218;55.700;38.270;2023-04-25T14:29:01;7.05;;;3.33;;
55346;SDS011;41218;55.700;38.270;2023-04-25T14:34:02;2.92;;;2.63;;
55346;SDS011;41218;55.700;38.270;2023-04-25T14:39:03;3.67;;;2.95;;
55346;SDS011;41218;55.700;38.270;2023-04-25T14:44:05;3.10;;;2.70;;
55346;SDS011;41218;55.700;38.270;2023-04-25T14:49:05;9.40;;;3.55;;
55346;SDS011;41218;55.700;38.270;2023-04-25T14:54:06;3.25;;;2.85;;
55346;SDS011;41218;55.700;38.270;2023-04-25T14:59:07;3.17;;;2.63;;
55346;SDS011;41218;55.700;38.270;2023-04-25T15:04:08;6.80;;;3.60;;
55346;SDS011;41218;55.700;38.270;2023-04-25T15:09:08;6.38;;;3.47;;
55346;SDS011;41218;55.700;38.270;2023-04-25T15:14:10;5.03;;;2.97;;
55346;SDS011;41218;55.700;38.270;2023-04-25T15:19:11;3.83;;;3.10;;
55346;SDS011;41218;55.700;38.270;2023-04-25T15:24:11;4.78;;;2.80;;
55346;SDS011;41218;55.700;38.270;2023-04-25T15:29:14;4.32;;;2.90;;
55346;SDS011;41218;55.700;38.270;2023-04-25T15:34:15;4.72;;;3.05;;
55346;SDS011;41218;55.700;38.270;2023-04-25T15:39:15;5.43;;;3.38;;
55346;SDS011;41218;55.700;38.270;2023-04-25T15:44:16;4.85;;;2.78;;
55346;SDS011;41218;55.700;38.270;2023-04-25T15:54:18;4.55;;;3.38;;
55346;SDS011;41218;55.700;38.270;2023-04-25T15:59:18;4.93;;;3.38;;
55346;SDS011;41218;55.700;38.270;2023-04-25T16:04:19;4.07;;;2.90;;
55346;SDS011;41218;55.700;38.270;2023-04-25T16:14:21;6.63;;;2.60;;
55346;SDS011;41218;55.700;38.270;2023-04-25T16:24:22;5.00;;;2.43;;
55346;SDS011;41218;55.700;38.270;2023-04-25T16:34:22;3.93;;;2.53;;
55346;SDS011;41218;55.700;38.270;2023-04-25T16:39:26;3.40;;;2.80;;
55346;SDS011;41218;55.700;38.270;2023-04-25T16:49:27;5.03;;;2.77;;
55346;SDS011;41218;55.700;38.270;2023-04-25T16:59:28;3.60;;;2.40;;
55346;SDS011;41218;55.700;38.270;2023-04-25T17:09:28;5.20;;;2.50;;
55346;SDS011;41218;55.700;38.270;2023-04-25T17:19:32;4.28;;;2.58;;
55346;SDS011;41218;55.700;38.270;2023-04-25T17:29:33;4.53;;;2.00;;
55346;SDS011;41218;55.700;38.270;2023-04-25T17:34:34;3.10;;;2.70;;
55346;SDS011;41218;55.700;38.270;2023-04-25T17:39:36;3.30;;;2.22;;
55346;SDS011;41218;55.700;38.270;2023-04-25T17:49:38;3.53;;;2.42;;
55346;SDS011;41218;55.700;38.270;2023-04-25T17:54:38;3.15;;;2.58;;
55346;SDS011;41218;55.700;38.270;2023-04-25T18:04:39;2.67;;;2.17;;
55346;SDS011;41218;55.700;38.270;2023-04-25T18:09:40;3.67;;;2.70;;
55346;SDS011;41218;55.700;38.270;2023-04-25T18:14:40;3.47;;;2.60;;
55346;SDS011;41218;55.700;38.270;2023-04-25T18:19:41;4.07;;;2.65;;
55346;SDS011;41218;55.700;38.270;2023-04-25T18:24:42;2.92;;;2.33;;
55346;SDS011;41218;55.700;38.270;2023-04-25T18:29:45;5.05;;;2.72;;
55346;SDS011;41218;55.700;38.270;2023-04-25T18:34:46;4.80;;;2.38;;
55346;SDS011;41218;55.700;38.270;2023-04-25T18:39:49;4.10;;;3.08;;
55346;SDS011;41218;55.700;38.270;2023-04-25T18:44:49;5.18;;;2.90;;
55346;SDS011;41218;55.700;38.270;2023-04-25T18:49:50;5.07;;;2.55;;
55346;SDS011;41218;55.700;38.270;2023-04-25T18:54:50;3.75;;;2.53;;
55346;SDS011;41218;55.700;38.270;2023-04-25T18:59:51;3.65;;;2.38;;
55346;SDS011;41218;55.700;38.270;2023-04-25T19:04:52;6.07;;;2.73;;
55346;SDS011;41218;55.700;38.270;2023-04-25T19:09:52;4.20;;;2.67;;
55346;SDS011;41218;55.700;38.270;2023-04-25T19:14:53;3.83;;;2.80;;
55346;SDS011;41218;55.700;38.270;2023-04-25T19:19:54;4.40;;;2.85;;
55346;SDS011;41218;55.700;38.270;2023-04-25T19:24:55;5.18;;;3.05;;
55346;SDS011;41218;55.700;38.270;2023-04-25T19:29:57;5.25;;;2.50;;
55346;SDS011;41218;55.700;38.270;2023-04-25T19:35:07;4.10;;;2.97;;
55346;SDS011;41218;55.700;38.270;2023-04-25T19:40:09;3.95;;;2.80;;
55346;SDS011;41218;55.700;38.270;2023-04-25T19:45:10;4.20;;;2.90;;
55346;SDS011;41218;55.700;38.270;2023-04-25T19:55:11;4.30;;;2.93;;
55346;SDS011;41218;55.700;38.270;2023-04-25T20:00:13;4.45;;;2.70;;
55346;SDS011;41218;55.700;38.270;2023-04-25T20:05:15;4.38;;;3.05;;
55346;SDS011;41218;55.700;38.270;2023-04-25T20:10:16;4.38;;;3.00;;
55346;SDS011;41218;55.700;38.270;2023-04-25T20:15:17;6.50;;;3.63;;
55346;SDS011;41218;55.700;38.270;2023-04-25T20:20:18;6.30;;;3.30;;
55346;SDS011;41218;55.700;38.270;2023-04-25T20:25:19;5.57;;;3.42;;
55346;SDS011;41218;55.700;38.270;2023-04-25T20:30:19;6.40;;;3.80;;
55346;SDS011;41218;55.700;38.270;2023-04-25T20:35:20;6.10;;;4.00;;
55346;SDS011;41218;55.700;38.270;2023-04-25T20:40:22;6.45;;;4.13;;
55346;SDS011;41218;55.700;38.270;2023-04-25T20:45:22;8.43;;;4.00;;
55346;SDS011;41218;55.700;38.270;2023-04-25T20:50:25;8.85;;;3.67;;
55346;SDS011;41218;55.700;38.270;2023-04-25T20:55:27;7.85;;;4.20;;
55346;SDS011;41218;55.700;38.270;2023-04-25T21:00:27;8.57;;;4.23;;
55346;SDS011;41218;55.700;38.270;2023-04-25T21:05:28;5.88;;;3.88;;
55346;SDS011;41218;55.700;38.270;2023-04-25T21:10:28;7.50;;;3.90;;
55346;SDS011;41218;55.700;38.270;2023-04-25T21:15:29;5.90;;;3.93;;
55346;SDS011;41218;55.700;38.270;2023-04-25T21:20:30;6.97;;;3.55;;
55346;SDS011;41218;55.700;38.270;2023-04-25T21:25:31;8.55;;;3.70;;
55346;SDS011;41218;55.700;38.270;2023-04-25T21:30:32;9.35;;;3.92;;
55346;SDS011;41218;55.700;38.270;2023-04-25T21:35:35;7.82;;;3.97;;
55346;SDS011;41218;55.700;38.270;2023-04-25T21:40:36;8.55;;;4.00;;
55346;SDS011;41218;55.700;38.270;2023-04-25T21:45:36;5.80;;;3.53;;
55346;SDS011;41218;55.700;38.270;2023-04-25T21:50:37;5.87;;;3.93;;
55346;SDS011;41218;55.700;38.270;2023-04-25T21:55:37;9.83;;;4.30;;
55346;SDS011;41218;55.700;38.270;2023-04-25T22:00:38;6.00;;;4.03;;
55346;SDS011;41218;55.700;38.270;2023-04-25T22:05:38;6.23;;;4.43;;
55346;SDS011;41218;55.700;38.270;2023-04-25T22:10:39;5.97;;;4.07;;
55346;SDS011;41218;55.700;38.270;2023-04-25T22:15:41;8.57;;;4.65;;
55346;SDS011;41218;55.700;38.270;2023-04-25T22:20:41;7.57;;;4.90;;
55346;SDS011;41218;55.700;38.270;2023-04-25T22:25:43;10.98;;;4.82;;
55346;SDS011;41218;55.700;38.270;2023-04-25T22:30:43;8.52;;;4.95;;
55346;SDS011;41218;55.700;38.270;2023-04-25T22:35:44;6.83;;;4.43;;
55346;SDS011;41218;55.700;38.270;2023-04-25T22:40:45;7.72;;;4.47;;
55346;SDS011;41218;55.700;38.270;2023-04-25T22:45:46;6.68;;;4.28;;
55346;SDS011;41218;55.700;38.270;2023-04-25T22:50:47;6.47;;;3.90;;
55346;SDS011;41218;55.700;38.270;2023-04-25T22:55:53;6.45;;;4.20;;
55346;SDS011;41218;55.700;38.270;2023-04-25T23:00:56;6.43;;;4.13;;
55346;SDS011;41218;55.700;38.270;2023-04-25T23:05:58;8.15;;;4.20;;
55346;SDS011;41218;55.700;38.270;2023-04-25T23:10:58;5.90;;;3.75;;
55346;SDS011;41218;55.700;38.270;2023-04-25T23:16:03;6.07;;;3.80;;
55346;SDS011;41218;55.700;38.270;2023-04-25T23:21:05;6.95;;;4.22;;
55346;SDS011;41218;55.700;38.270;2023-04-25T23:26:08;7.38;;;3.50;;
55346;SDS011;41218;55.700;38.270;2023-04-25T23:31:09;6.18;;;3.58;;
55346;SDS011;41218;55.700;38.270;2023-04-25T23:36:17;8.38;;;3.78;;
55346;SDS011;41218;55.700;38.270;2023-04-25T23:41:20;6.28;;;3.72;;
55346;SDS011;41218;55.700;38.270;2023-04-25T23:46:21;6.07;;;3.63;;
55346;SDS011;41218;55.700;38.270;2023-04-25T23:51:22;6.90;;;3.43;;
55346;SDS011;41218;55.700;38.270;2023-04-25T23:56:24;5.65;;;3.55;;
